sensor_id;sensor_type;location;lat;lon;timestamp;pressure;altitude;pressure_sealevel;temperature;humidity
68179;BME280;54998;42.656;23.382;2023-01-29T00:01:47;94971.69;;;-1.86;79.84
68179;BME280;54998;42.656;23.382;2023-01-29T00:04:12;94965.56;;;-2.00;80.00
68179;BME280;54998;42.656;23.382;2023-01-29T00:06:38;94971.38;;;-1.98;79.92
68179;BME280;54998;42.656;23.382;2023-01-29T00:09:24;94983.66;;;-1.91;79.86
68179;BME280;54998;42.656;23.382;2023-01-29T00:11:49;94989.16;;;-1.82;79.50
68179;BME280;54998;42.656;23.382;2023-01-29T00:14:15;94991.94;;;-1.89;79.59
68179;BME280;54998;42.656;23.382;2023-01-29T00:16:41;94999.19;;;-1.81;79.34
68179;BME280;54998;42.656;23.382;2023-01-29T00:19:09;94993.56;;;-1.88;79.24
68179;BME280;54998;42.656;23.382;2023-01-29T00:21:34;95004.53;;;-1.89;79.50
68179;BME280;54998;42.656;23.382;2023-01-29T00:23:59;95007.25;;;-1.73;79.33
68179;BME280;54998;42.656;23.382;2023-01-29T00:26:26;94994.84;;;-1.77;79.67
68179;BME280;54998;42.656;23.382;2023-01-29T00:28:52;95011.69;;;-1.79;79.67
68179;BME280;54998;42.656;23.382;2023-01-29T00:31:20;95004.22;;;-1.81;79.45
68179;BME280;54998;42.656;23.382;2023-01-29T00:33:47;95004.91;;;-1.77;79.29
68179;BME280;54998;42.656;23.382;2023-01-29T00:36:15;95011.00;;;-1.83;79.45
68179;BME280;54998;42.656;23.382;2023-01-29T00:38:41;94999.97;;;-1.80;79.66
68179;BME280;54998;42.656;23.382;2023-01-29T00:41:19;94988.88;;;-1.75;79.48
68179;BME280;54998;42.656;23.382;2023-01-29T00:44:03;94997.78;;;-1.88;79.92
68179;BME280;54998;42.656;23.382;2023-01-29T00:46:48;95006.59;;;-1.98;80.35
68179;BME280;54998;42.656;23.382;2023-01-29T00:49:13;95007.03;;;-1.89;80.39
68179;BME280;54998;42.656;23.382;2023-01-29T00:51:39;94995.94;;;-1.84;80.58
68179;BME280;54998;42.656;23.382;2023-01-29T00:54:04;95006.97;;;-1.87;80.48
68179;BME280;54998;42.656;23.382;2023-01-29T00:56:34;95004.81;;;-1.96;81.23
68179;BME280;54998;42.656;23.382;2023-01-29T00:59:00;95002.06;;;-1.90;81.15
68179;BME280;54998;42.656;23.382;2023-01-29T01:01:26;95002.06;;;-1.90;81.30
68179;BME280;54998;42.656;23.382;2023-01-29T01:04:11;95003.94;;;-1.95;81.49
68179;BME280;54998;42.656;23.382;2023-01-29T01:06:40;95004.00;;;-1.97;81.55
68179;BME280;54998;42.656;23.382;2023-01-29T01:09:06;94993.44;;;-2.05;81.71
68179;BME280;54998;42.656;23.382;2023-01-29T01:11:51;95000.75;;;-1.99;81.44
68179;BME280;54998;42.656;23.382;2023-01-29T01:14:18;95010.84;;;-2.00;82.01
68179;BME280;54998;42.656;23.382;2023-01-29T01:16:45;94994.25;;;-2.04;81.92
68179;BME280;54998;42.656;23.382;2023-01-29T01:19:11;95012.25;;;-2.15;82.57
68179;BME280;54998;42.656;23.382;2023-01-29T01:21:39;94995.56;;;-1.96;82.25
68179;BME280;54998;42.656;23.382;2023-01-29T01:24:14;94993.28;;;-2.02;82.50
68179;BME280;54998;42.656;23.382;2023-01-29T01:26:39;94998.50;;;-2.07;82.70
68179;BME280;54998;42.656;23.382;2023-01-29T01:29:04;94986.50;;;-2.00;82.45
68179;BME280;54998;42.656;23.382;2023-01-29T01:31:30;94987.41;;;-2.01;81.97
68179;BME280;54998;42.656;23.382;2023-01-29T01:33:55;94988.63;;;-2.11;82.09
68179;BME280;54998;42.656;23.382;2023-01-29T01:36:21;94992.66;;;-2.07;82.23
68179;BME280;54998;42.656;23.382;2023-01-29T01:38:46;94989.78;;;-2.18;82.04
68179;BME280;54998;42.656;23.382;2023-01-29T01:41:21;94992.97;;;-2.15;82.07
68179;BME280;54998;42.656;23.382;2023-01-29T01:43:51;94996.81;;;-2.06;82.16
68179;BME280;54998;42.656;23.382;2023-01-29T01:46:16;94991.16;;;-2.11;82.14
68179;BME280;54998;42.656;23.382;2023-01-29T01:48:43;94999.28;;;-2.04;82.37
68179;BME280;54998;42.656;23.382;2023-01-29T01:51:11;95001.56;;;-1.98;82.04
68179;BME280;54998;42.656;23.382;2023-01-29T01:53:52;95004.88;;;-1.98;81.96
68179;BME280;54998;42.656;23.382;2023-01-29T01:56:24;95005.78;;;-1.99;82.50
68179;BME280;54998;42.656;23.382;2023-01-29T01:58:54;95002.50;;;-2.01;82.19
68179;BME280;54998;42.656;23.382;2023-01-29T02:01:21;95013.59;;;-2.07;82.54
68179;BME280;54998;42.656;23.382;2023-01-29T02:03:57;95014.53;;;-2.09;82.73
68179;BME280;54998;42.656;23.382;2023-01-29T02:06:44;95000.44;;;-2.13;82.84
68179;BME280;54998;42.656;23.382;2023-01-29T02:09:36;95015.66;;;-2.16;83.27
68179;BME280;54998;42.656;23.382;2023-01-29T02:12:10;95013.97;;;-2.16;83.11
68179;BME280;54998;42.656;23.382;2023-01-29T02:14:38;95005.81;;;-2.00;83.02
68179;BME280;54998;42.656;23.382;2023-01-29T02:17:05;95010.78;;;-1.99;82.79
68179;BME280;54998;42.656;23.382;2023-01-29T02:25:46;95007.19;;;-2.14;82.97
68179;BME280;54998;42.656;23.382;2023-01-29T02:30:37;95025.25;;;-2.26;83.79
68179;BME280;54998;42.656;23.382;2023-01-29T02:41:37;95023.56;;;-2.03;83.82
68179;BME280;54998;42.656;23.382;2023-01-29T02:44:19;95028.88;;;-2.11;83.88
68179;BME280;54998;42.656;23.382;2023-01-29T02:46:55;95030.09;;;-2.21;84.33
68179;BME280;54998;42.656;23.382;2023-01-29T02:52:16;95034.72;;;-2.11;84.76
68179;BME280;54998;42.656;23.382;2023-01-29T02:54:44;95033.94;;;-2.13;84.49
68179;BME280;54998;42.656;23.382;2023-01-29T02:57:20;95028.78;;;-2.08;84.14
68179;BME280;54998;42.656;23.382;2023-01-29T03:00:10;95040.75;;;-2.15;84.16
68179;BME280;54998;42.656;23.382;2023-01-29T03:08:32;95035.03;;;-2.18;84.87
68179;BME280;54998;42.656;23.382;2023-01-29T03:11:09;95042.25;;;-2.11;84.58
68179;BME280;54998;42.656;23.382;2023-01-29T03:14:11;95045.63;;;-2.10;84.67
68179;BME280;54998;42.656;23.382;2023-01-29T03:16:44;95048.00;;;-2.07;85.27
68179;BME280;54998;42.656;23.382;2023-01-29T03:19:16;95041.22;;;-2.05;84.73
68179;BME280;54998;42.656;23.382;2023-01-29T03:21:47;95042.78;;;-2.02;84.75
68179;BME280;54998;42.656;23.382;2023-01-29T03:24:24;95044.50;;;-2.03;84.82
68179;BME280;54998;42.656;23.382;2023-01-29T03:27:10;95049.13;;;-2.14;84.46
68179;BME280;54998;42.656;23.382;2023-01-29T03:29:57;95048.47;;;-1.97;84.22
68179;BME280;54998;42.656;23.382;2023-01-29T03:32:44;95051.16;;;-2.02;83.86
68179;BME280;54998;42.656;23.382;2023-01-29T03:35:13;95039.75;;;-2.11;83.85
68179;BME280;54998;42.656;23.382;2023-01-29T03:37:46;95052.31;;;-2.11;83.65
68179;BME280;54998;42.656;23.382;2023-01-29T03:40:13;95046.88;;;-2.00;83.69
68179;BME280;54998;42.656;23.382;2023-01-29T03:45:46;95050.28;;;-2.01;82.69
68179;BME280;54998;42.656;23.382;2023-01-29T03:48:18;95047.59;;;-1.96;82.93
68179;BME280;54998;42.656;23.382;2023-01-29T03:53:46;95041.66;;;-1.95;83.16
68179;BME280;54998;42.656;23.382;2023-01-29T03:56:33;95046.13;;;-2.02;83.16
68179;BME280;54998;42.656;23.382;2023-01-29T03:59:20;95047.38;;;-2.12;84.01
68179;BME280;54998;42.656;23.382;2023-01-29T04:01:52;95051.56;;;-2.13;84.46
68179;BME280;54998;42.656;23.382;2023-01-29T04:04:32;95052.22;;;-2.08;84.56
68179;BME280;54998;42.656;23.382;2023-01-29T04:07:10;95050.34;;;-2.24;84.98
68179;BME280;54998;42.656;23.382;2023-01-29T04:09:44;95055.25;;;-2.21;85.19
68179;BME280;54998;42.656;23.382;2023-01-29T04:12:12;95047.13;;;-2.28;85.68
68179;BME280;54998;42.656;23.382;2023-01-29T04:14:39;95048.63;;;-2.24;85.93
68179;BME280;54998;42.656;23.382;2023-01-29T04:17:14;95046.78;;;-2.19;85.38
68179;BME280;54998;42.656;23.382;2023-01-29T04:19:41;95045.38;;;-2.26;85.44
68179;BME280;54998;42.656;23.382;2023-01-29T04:22:17;95057.47;;;-2.14;85.26
68179;BME280;54998;42.656;23.382;2023-01-29T04:24:44;95054.34;;;-2.19;85.46
68179;BME280;54998;42.656;23.382;2023-01-29T04:33:17;95062.50;;;-2.14;84.84
68179;BME280;54998;42.656;23.382;2023-01-29T04:39:07;95065.59;;;-2.29;84.83
68179;BME280;54998;42.656;23.382;2023-01-29T04:45:08;95061.44;;;-2.30;84.83
68179;BME280;54998;42.656;23.382;2023-01-29T04:47:45;95069.66;;;-2.25;85.02
68179;BME280;54998;42.656;23.382;2023-01-29T04:50:28;95058.50;;;-2.19;84.84
68179;BME280;54998;42.656;23.382;2023-01-29T04:54:15;95074.91;;;-2.09;84.47
68179;BME280;54998;42.656;23.382;2023-01-29T04:59:04;95065.78;;;-2.12;83.98
68179;BME280;54998;42.656;23.382;2023-01-29T05:01:32;95073.16;;;-2.07;83.90
68179;BME280;54998;42.656;23.382;2023-01-29T05:04:01;95065.19;;;-2.18;84.00
68179;BME280;54998;42.656;23.382;2023-01-29T05:06:30;95074.19;;;-2.13;84.37
68179;BME280;54998;42.656;23.382;2023-01-29T05:08:56;95069.34;;;-2.17;83.99
68179;BME280;54998;42.656;23.382;2023-01-29T05:11:26;95077.09;;;-2.23;83.84
68179;BME280;54998;42.656;23.382;2023-01-29T05:14:05;95080.38;;;-2.21;84.00
68179;BME280;54998;42.656;23.382;2023-01-29T05:16:38;95082.97;;;-2.23;83.81
68179;BME280;54998;42.656;23.382;2023-01-29T05:19:13;95067.94;;;-2.24;83.89
68179;BME280;54998;42.656;23.382;2023-01-29T05:21:47;95082.63;;;-2.14;83.57
68179;BME280;54998;42.656;23.382;2023-01-29T05:26:43;95078.97;;;-2.29;83.81
68179;BME280;54998;42.656;23.382;2023-01-29T05:29:29;95088.41;;;-2.34;83.67
68179;BME280;54998;42.656;23.382;2023-01-29T05:31:54;95088.41;;;-2.34;83.92
68179;BME280;54998;42.656;23.382;2023-01-29T05:34:22;95099.59;;;-2.19;83.86
68179;BME280;54998;42.656;23.382;2023-01-29T05:36:48;95074.66;;;-2.25;83.80
68179;BME280;54998;42.656;23.382;2023-01-29T05:39:14;95094.56;;;-2.19;83.95
68179;BME280;54998;42.656;23.382;2023-01-29T05:41:42;95091.09;;;-2.16;83.88
68179;BME280;54998;42.656;23.382;2023-01-29T05:44:11;95079.56;;;-2.22;83.56
68179;BME280;54998;42.656;23.382;2023-01-29T05:46:37;95088.69;;;-2.19;84.46
68179;BME280;54998;42.656;23.382;2023-01-29T05:49:04;95086.72;;;-2.11;84.04
68179;BME280;54998;42.656;23.382;2023-01-29T05:51:30;95096.06;;;-2.15;83.67
68179;BME280;54998;42.656;23.382;2023-01-29T05:54:00;95089.63;;;-2.22;84.01
68179;BME280;54998;42.656;23.382;2023-01-29T05:56:26;95101.78;;;-2.11;83.95
68179;BME280;54998;42.656;23.382;2023-01-29T05:58:51;95108.03;;;-2.21;84.49
68179;BME280;54998;42.656;23.382;2023-01-29T06:01:19;95112.84;;;-2.15;84.15
68179;BME280;54998;42.656;23.382;2023-01-29T06:03:45;95104.44;;;-2.14;84.35
68179;BME280;54998;42.656;23.382;2023-01-29T06:06:11;95113.72;;;-2.16;84.65
68179;BME280;54998;42.656;23.382;2023-01-29T06:08:37;95121.91;;;-2.11;84.66
68179;BME280;54998;42.656;23.382;2023-01-29T06:11:03;95122.25;;;-2.20;84.91
68179;BME280;54998;42.656;23.382;2023-01-29T06:13:34;95123.22;;;-2.23;84.90
68179;BME280;54998;42.656;23.382;2023-01-29T06:15:59;95123.50;;;-2.09;84.91
68179;BME280;54998;42.656;23.382;2023-01-29T06:18:27;95128.03;;;-1.95;84.65
68179;BME280;54998;42.656;23.382;2023-01-29T06:20:52;95131.16;;;-1.90;84.34
68179;BME280;54998;42.656;23.382;2023-01-29T06:23:17;95122.69;;;-2.09;84.44
68179;BME280;54998;42.656;23.382;2023-01-29T06:25:43;95141.09;;;-2.09;84.93
68179;BME280;54998;42.656;23.382;2023-01-29T06:28:09;95140.09;;;-2.04;85.29
68179;BME280;54998;42.656;23.382;2023-01-29T06:30:34;95138.53;;;-2.07;85.28
68179;BME280;54998;42.656;23.382;2023-01-29T06:32:59;95140.06;;;-2.03;85.00
68179;BME280;54998;42.656;23.382;2023-01-29T06:35:28;95140.16;;;-2.06;85.10
68179;BME280;54998;42.656;23.382;2023-01-29T06:37:56;95151.34;;;-1.91;85.17
68179;BME280;54998;42.656;23.382;2023-01-29T06:40:22;95143.34;;;-1.79;84.15
68179;BME280;54998;42.656;23.382;2023-01-29T06:42:47;95151.59;;;-1.75;84.33
68179;BME280;54998;42.656;23.382;2023-01-29T06:45:16;95158.66;;;-1.63;83.77
68179;BME280;54998;42.656;23.382;2023-01-29T06:47:41;95160.41;;;-1.65;83.94
68179;BME280;54998;42.656;23.382;2023-01-29T06:50:07;95158.84;;;-1.68;83.65
68179;BME280;54998;42.656;23.382;2023-01-29T06:52:32;95167.56;;;-1.54;83.45
68179;BME280;54998;42.656;23.382;2023-01-29T06:54:58;95173.94;;;-1.46;83.23
68179;BME280;54998;42.656;23.382;2023-01-29T06:57:28;95167.50;;;-1.53;82.92
68179;BME280;54998;42.656;23.382;2023-01-29T07:00:03;95176.56;;;-1.49;83.27
68179;BME280;54998;42.656;23.382;2023-01-29T07:02:28;95167.31;;;-1.48;83.13
68179;BME280;54998;42.656;23.382;2023-01-29T07:05:04;95164.38;;;-1.37;83.30
68179;BME280;54998;42.656;23.382;2023-01-29T07:07:29;95171.34;;;-1.44;82.50
68179;BME280;54998;42.656;23.382;2023-01-29T07:09:55;95170.94;;;-1.33;82.26
68179;BME280;54998;42.656;23.382;2023-01-29T07:12:20;95170.88;;;-1.32;81.77
68179;BME280;54998;42.656;23.382;2023-01-29T07:14:45;95179.53;;;-1.39;82.03
68179;BME280;54998;42.656;23.382;2023-01-29T07:17:11;95176.09;;;-1.36;82.04
68179;BME280;54998;42.656;23.382;2023-01-29T07:19:42;95178.53;;;-1.35;81.86
68179;BME280;54998;42.656;23.382;2023-01-29T07:22:07;95184.06;;;-1.25;82.49
68179;BME280;54998;42.656;23.382;2023-01-29T07:24:33;95179.06;;;-1.27;81.89
68179;BME280;54998;42.656;23.382;2023-01-29T07:26:58;95182.91;;;-1.38;82.57
68179;BME280;54998;42.656;23.382;2023-01-29T07:29:23;95194.94;;;-1.25;82.18
68179;BME280;54998;42.656;23.382;2023-01-29T07:31:49;95192.22;;;-1.20;82.18
68179;BME280;54998;42.656;23.382;2023-01-29T07:34:14;95194.00;;;-1.22;81.77
68179;BME280;54998;42.656;23.382;2023-01-29T07:36:40;95195.13;;;-1.09;80.99
68179;BME280;54998;42.656;23.382;2023-01-29T07:39:05;95201.56;;;-1.44;81.05
68179;BME280;54998;42.656;23.382;2023-01-29T07:41:31;95193.72;;;-1.36;82.02
68179;BME280;54998;42.656;23.382;2023-01-29T07:43:56;95188.69;;;-1.36;82.48
68179;BME280;54998;42.656;23.382;2023-01-29T07:46:21;95187.56;;;-1.29;82.12
68179;BME280;54998;42.656;23.382;2023-01-29T07:48:47;95191.97;;;-1.34;82.04
68179;BME280;54998;42.656;23.382;2023-01-29T07:51:12;95203.72;;;-1.35;82.43
68179;BME280;54998;42.656;23.382;2023-01-29T07:53:38;95194.16;;;-1.47;82.71
68179;BME280;54998;42.656;23.382;2023-01-29T07:56:03;95201.16;;;-1.33;82.43
68179;BME280;54998;42.656;23.382;2023-01-29T07:58:29;95205.31;;;-1.32;82.42
68179;BME280;54998;42.656;23.382;2023-01-29T08:00:54;95204.31;;;-1.28;82.15
68179;BME280;54998;42.656;23.382;2023-01-29T08:03:20;95207.41;;;-1.43;82.89
68179;BME280;54998;42.656;23.382;2023-01-29T08:05:48;95201.53;;;-1.42;83.06
68179;BME280;54998;42.656;23.382;2023-01-29T08:08:13;95197.34;;;-1.43;82.74
68179;BME280;54998;42.656;23.382;2023-01-29T08:10:39;95199.88;;;-1.43;82.55
68179;BME280;54998;42.656;23.382;2023-01-29T08:16:02;95213.38;;;-1.24;81.64
68179;BME280;54998;42.656;23.382;2023-01-29T08:18:28;95222.34;;;-1.17;82.20
68179;BME280;54998;42.656;23.382;2023-01-29T08:21:01;95218.56;;;-1.07;81.06
68179;BME280;54998;42.656;23.382;2023-01-29T08:23:27;95218.88;;;-1.58;82.05
68179;BME280;54998;42.656;23.382;2023-01-29T08:25:53;95204.69;;;-1.59;82.35
68179;BME280;54998;42.656;23.382;2023-01-29T08:28:18;95215.09;;;-1.47;83.03
68179;BME280;54998;42.656;23.382;2023-01-29T08:30:43;95219.50;;;-1.52;82.16
68179;BME280;54998;42.656;23.382;2023-01-29T08:33:09;95222.06;;;-1.31;81.37
68179;BME280;54998;42.656;23.382;2023-01-29T08:35:35;95219.72;;;-1.36;81.35
68179;BME280;54998;42.656;23.382;2023-01-29T08:38:02;95225.34;;;-1.29;81.39
68179;BME280;54998;42.656;23.382;2023-01-29T08:40:31;95226.47;;;-1.36;81.19
68179;BME280;54998;42.656;23.382;2023-01-29T08:43:03;95231.25;;;-1.30;80.57
68179;BME280;54998;42.656;23.382;2023-01-29T08:45:41;95226.16;;;-1.29;80.13
68179;BME280;54998;42.656;23.382;2023-01-29T09:22:19;95254.09;;;-1.13;79.41
68179;BME280;54998;42.656;23.382;2023-01-29T16:09:06;95221.84;;;-1.69;79.40
68179;BME280;54998;42.656;23.382;2023-01-29T17:02:29;95234.66;;;-1.53;78.57
68179;BME280;54998;42.656;23.382;2023-01-29T18:20:41;95213.75;;;-1.55;78.67
68179;BME280;54998;42.656;23.382;2023-01-29T18:45:42;95218.47;;;-1.70;78.96
68179;BME280;54998;42.656;23.382;2023-01-29T20:04:01;95228.13;;;-1.81;79.95
68179;BME280;54998;42.656;23.382;2023-01-29T22:10:17;95203.50;;;-1.73;75.63
68179;BME280;54998;42.656;23.382;2023-01-29T22:12:42;95206.38;;;-1.60;75.21
68179;BME280;54998;42.656;23.382;2023-01-29T22:15:09;95202.16;;;-1.59;74.24
68179;BME280;54998;42.656;23.382;2023-01-29T22:17:34;95205.13;;;-1.72;74.30
68179;BME280;54998;42.656;23.382;2023-01-29T22:20:00;95203.69;;;-1.77;74.75
68179;BME280;54998;42.656;23.382;2023-01-29T22:22:25;95194.44;;;-1.77;74.20
68179;BME280;54998;42.656;23.382;2023-01-29T22:24:51;95187.16;;;-1.84;74.39
68179;BME280;54998;42.656;23.382;2023-01-29T22:27:17;95200.03;;;-1.92;74.89
68179;BME280;54998;42.656;23.382;2023-01-29T22:29:42;95193.94;;;-1.87;74.67
68179;BME280;54998;42.656;23.382;2023-01-29T22:32:08;95178.09;;;-1.89;74.75
68179;BME280;54998;42.656;23.382;2023-01-29T22:34:34;95191.41;;;-1.87;74.71
68179;BME280;54998;42.656;23.382;2023-01-29T22:37:00;95185.91;;;-1.96;74.47
68179;BME280;54998;42.656;23.382;2023-01-29T22:39:26;95183.13;;;-1.89;74.80
68179;BME280;54998;42.656;23.382;2023-01-29T22:41:52;95188.91;;;-1.87;74.83
68179;BME280;54998;42.656;23.382;2023-01-29T22:44:17;95187.03;;;-2.03;75.34
68179;BME280;54998;42.656;23.382;2023-01-29T22:46:42;95187.09;;;-2.05;75.50
68179;BME280;54998;42.656;23.382;2023-01-29T22:49:08;95189.31;;;-1.97;75.90
68179;BME280;54998;42.656;23.382;2023-01-29T22:51:33;95180.34;;;-2.04;76.21
68179;BME280;54998;42.656;23.382;2023-01-29T22:53:59;95175.66;;;-2.14;76.86
68179;BME280;54998;42.656;23.382;2023-01-29T22:56:26;95179.22;;;-2.19;77.55
68179;BME280;54998;42.656;23.382;2023-01-29T22:58:55;95179.41;;;-2.02;77.05
68179;BME280;54998;42.656;23.382;2023-01-29T23:01:23;95175.44;;;-2.08;77.22
68179;BME280;54998;42.656;23.382;2023-01-29T23:03:49;95170.03;;;-2.20;77.74
68179;BME280;54998;42.656;23.382;2023-01-29T23:06:15;95170.81;;;-2.18;77.72
68179;BME280;54998;42.656;23.382;2023-01-29T23:08:41;95165.44;;;-2.09;77.66
68179;BME280;54998;42.656;23.382;2023-01-29T23:11:09;95165.66;;;-2.15;77.91
68179;BME280;54998;42.656;23.382;2023-01-29T23:13:44;95170.50;;;-2.11;78.01
68179;BME280;54998;42.656;23.382;2023-01-29T23:16:10;95168.84;;;-2.10;77.64
68179;BME280;54998;42.656;23.382;2023-01-29T23:18:35;95164.84;;;-2.16;77.67
68179;BME280;54998;42.656;23.382;2023-01-29T23:21:01;95154.06;;;-2.19;77.48
68179;BME280;54998;42.656;23.382;2023-01-29T23:23:28;95154.19;;;-2.22;76.67
68179;BME280;54998;42.656;23.382;2023-01-29T23:26:00;95162.16;;;-2.11;75.90
68179;BME280;54998;42.656;23.382;2023-01-29T23:28:45;95161.72;;;-2.22;76.31
68179;BME280;54998;42.656;23.382;2023-01-29T23:31:11;95164.25;;;-2.22;76.13
68179;BME280;54998;42.656;23.382;2023-01-29T23:33:37;95155.59;;;-2.15;75.67
68179;BME280;54998;42.656;23.382;2023-01-29T23:36:04;95156.47;;;-2.16;75.13
68179;BME280;54998;42.656;23.382;2023-01-29T23:38:29;95154.56;;;-2.10;75.02
68179;BME280;54998;42.656;23.382;2023-01-29T23:40:55;95157.13;;;-2.11;74.51
68179;BME280;54998;42.656;23.382;2023-01-29T23:43:23;95152.44;;;-2.20;73.87
68179;BME280;54998;42.656;23.382;2023-01-29T23:45:48;95160.16;;;-2.25;73.75
68179;BME280;54998;42.656;23.382;2023-01-29T23:48:13;95159.44;;;-2.29;73.38
68179;BME280;54998;42.656;23.382;2023-01-29T23:50:39;95157.56;;;-2.23;73.39
68179;BME280;54998;42.656;23.382;2023-01-29T23:53:04;95152.66;;;-2.27;73.33
68179;BME280;54998;42.656;23.382;2023-01-29T23:55:29;95156.56;;;-2.19;73.45
68179;BME280;54998;42.656;23.382;2023-01-29T23:57:55;95160.75;;;-2.18;73.24
